TimeMDT,TemperatureF,Dew PointF,Humidity,Sea Level PressureIn,VisibilityMPH,Wind Direction,Wind SpeedMPH,Gust SpeedMPH,PrecipitationIn,Events,Conditions,WindDirDegrees,DateUTC
12:53 AM,75.9,54.0,46,29.85,10.0,South,6.9,-,N/A,,Clear,170,2013-06-27 06:53:00
1:53 AM,75.0,55.0,50,29.85,10.0,SSW,8.1,-,N/A,,Clear,200,2013-06-27 07:53:00
2:53 AM,71.1,57.0,61,29.85,10.0,SW,4.6,-,N/A,,Clear,230,2013-06-27 08:53:00
3:53 AM,72.0,57.9,61,29.85,10.0,SW,8.1,-,N/A,,Clear,230,2013-06-27 09:53:00
4:53 AM,70.0,57.9,65,29.86,8.0,West,6.9,-,N/A,,Clear,280,2013-06-27 10:53:00
5:53 AM,72.0,57.0,59,29.88,10.0,West,9.2,-,N/A,,Clear,270,2013-06-27 11:53:00
6:53 AM,75.9,57.9,54,29.87,10.0,West,11.5,-,N/A,,Clear,270,2013-06-27 12:53:00
7:53 AM,79.0,53.1,40,29.90,10.0,NW,18.4,-,N/A,,Clear,320,2013-06-27 13:53:00
8:53 AM,80.1,57.9,47,29.94,10.0,NNW,18.4,24.2,N/A,,Clear,340,2013-06-27 14:53:00
9:53 AM,82.0,64.0,54,29.96,10.0,North,19.6,26.5,N/A,,Clear,10,2013-06-27 15:53:00
10:53 AM,82.9,64.0,53,29.99,10.0,North,24.2,31.1,N/A,,Clear,10,2013-06-27 16:53:00
11:53 AM,86.0,63.0,46,30.00,10.0,NNE,19.6,26.5,N/A,,Clear,30,2013-06-27 17:53:00
12:53 PM,87.1,62.1,43,30.01,10.0,NNE,15.0,24.2,N/A,,Clear,20,2013-06-27 18:53:00
1:53 PM,88.0,61.0,40,30.01,10.0,NNE,13.8,25.3,N/A,,Clear,30,2013-06-27 19:53:00
2:53 PM,89.1,61.0,39,30.01,10.0,NNE,18.4,24.2,N/A,,Clear,20,2013-06-27 20:53:00
3:53 PM,89.1,60.1,38,30.00,10.0,NE,17.3,21.9,N/A,,Clear,40,2013-06-27 21:53:00
4:53 PM,88.0,59.0,37,29.99,10.0,NE,15.0,21.9,N/A,,Clear,40,2013-06-27 22:53:00
5:53 PM,87.1,59.0,39,29.98,10.0,NNE,9.2,-,N/A,,Clear,30,2013-06-27 23:53:00
6:53 PM,84.9,59.0,41,30.00,10.0,ENE,11.5,-,N/A,,Clear,60,2013-06-28 00:53:00
7:53 PM,79.0,60.1,52,30.00,10.0,East,6.9,-,N/A,,Clear,80,2013-06-28 01:53:00
8:53 PM,73.9,60.1,62,30.02,10.0,East,3.5,-,N/A,,Clear,100,2013-06-28 02:53:00
9:53 PM,71.1,60.1,68,30.06,10.0,South,3.5,-,N/A,,Clear,170,2013-06-28 03:53:00
10:53 PM,70.0,61.0,73,30.09,10.0,South,3.5,-,N/A,,Clear,180,2013-06-28 04:53:00
11:53 PM,70.0,63.0,78,30.08,10.0,South,6.9,-,N/A,,Clear,180,2013-06-28 05:53:00